Impacts METAR Board INFO
IDs:

KCLT - Charlotte/Douglas In, NC, US

Updated at: 1928 UTC 19 Jan 2018
Potential Impact None Slight Moderate High
Time19/07Z 19/08Z 19/09Z 19/10Z 19/11Z 19/12Z 19/13Z 19/14Z 19/15Z 19/16Z 19/17Z 19/18Z 19/19Z
VIS10 10 10 10 10 10 10 10 10 10 10 10 10
CIG-- -- -- -- -- -- -- -- -- -- -- -- --
CoverCLRCLRCLRCLRCLRCLRCLRFEWCLRCLRCLRCLRCLR
FltCatVFRVFRVFRVFRVFRVFRVFRVFRVFRVFRVFRVFRVFR
WX--------------------------
WDir23015014016000000000230
WSpd3 3 3 4 0 0 0 0 0 0 0 0 3
WGst-- -- -- -- -- -- -- -- -- -- -- -- --
Raw hourly METARs
KCLT 190652Z 23003KT 10SM CLR M03/M06 A3022 RMK AO2 SLP240 T10281061
KCLT 190752Z 15003KT 10SM CLR M03/M07 A3022 RMK AO2 SLP237 T10331067
KCLT 190852Z 14003KT 10SM CLR M04/M06 A3021 RMK AO2 SLP235 T10441061 56009
KCLT 190952Z 16004KT 10SM CLR M04/M06 A3020 RMK AO2 SLP231 T10441061
KCLT 191052Z 00000KT 10SM CLR M03/M07 A3020 RMK AO2 SLP234 T10331067
KCLT 191152Z 00000KT 10SM CLR M04/M06 A3022 RMK AO2 SLP238 4/002 T10391056 11006 21056 53002
KCLT 191252Z 00000KT 10SM CLR M03/M06 A3023 RMK AO2 SLP242 T10331056
KCLT 191352Z 00000KT 10SM FEW250 M02/M05 A3024 RMK AO2 SLP246 T10171050
KCLT 191452Z 00000KT 10SM CLR 02/M05 A3024 RMK AO2 SLP244 T00171050 50008
KCLT 191552Z 00000KT 10SM CLR 07/M06 A3024 RMK AO2 SLP243 T00671061
KCLT 191652Z 00000KT 10SM CLR 09/M07 A3022 RMK AO2 SLP236 T00891072
KCLT 191752Z 00000KT 10SM CLR 11/M07 A3020 RMK AO2 SLP230 T01061067 10106 21056 58013
KCLT 191852Z 23003KT 10SM CLR 11/M07 A3018 RMK AO2 SLP224 T01061072